KTEX Airport Information

Runway Information
Runway 09 Length 6870 ft width 100 ft
Elevation 9061 ft Threshold 0 ft Heading 105
Runway 27 Length 6870 ft Width 100 ft
Elevation 9078 ft Threshold 0 ft Heading 285
Airport Frequencies
Type CNTR Name DENVER CNT Frequency 125.35 MHZ
Type FSS Name DENVER RDO Frequency 122.15 MHZ
Type UNIC Name CTAF/UNICO Frequency 123 MHZ
Airport Navaids
Airport Weather Information & NOTAM
ADDS - METARS form results

(1130 UTC 21 April 2018)
 
METAR text: KTEX 211115Z AUTO 26009KT 1/2SM -SN OVC001 M02/M02 A3012 RMK AO2 T10201020
Conditions at: KTEX (TELLURIDE REGION, CO, US) observed 1115 UTC 21 April 2018
Temperature: -2.0°C (28°F)
Dewpoint: -2.0°C (28°F) [RH = 100%]
Pressure (altimeter): 30.12 inches Hg (1020.1 mb)
Winds: from the W (260 degrees) at 10 MPH (9 knots; 4.7 m/s)
Visibility: 0.50 miles (0.80 km)
Ceiling: 100 feet AGL
Clouds: overcast cloud deck at 100 feet AGL
Weather: -SN  (light snow)

METAR text: KTEX 211055Z AUTO 25003KT 1/4SM SN OVC001 M02/M02 A3012 RMK AO2 T10201020
Conditions at: KTEX (TELLURIDE REGION, CO, US) observed 1055 UTC 21 April 2018
Temperature: -2.0°C (28°F)
Dewpoint: -2.0°C (28°F) [RH = 100%]
Pressure (altimeter): 30.12 inches Hg (1020.1 mb)
Winds: from the WSW (250 degrees) at 3 MPH (3 knots; 1.6 m/s)
Visibility: 0.25 miles (0.40 km)
Ceiling: 100 feet AGL
Clouds: overcast cloud deck at 100 feet AGL
Weather: SN  (snow)

METAR text: KTEX 211035Z AUTO 23004KT 1/4SM SN OVC001 M02/M02 A3012 RMK AO2 T10201020
Conditions at: KTEX (TELLURIDE REGION, CO, US) observed 1035 UTC 21 April 2018
Temperature: -2.0°C (28°F)
Dewpoint: -2.0°C (28°F) [RH = 100%]
Pressure (altimeter): 30.12 inches Hg (1020.1 mb)
Winds: from the SW (230 degrees) at 5 MPH (4 knots; 2.1 m/s)
Visibility: 0.25 miles (0.40 km)
Ceiling: 100 feet AGL
Clouds: overcast cloud deck at 100 feet AGL
Weather: SN  (snow)